createdAt,value
2017-06-12T06:31:32.189Z,37.9
2017-06-12T06:32:32.560Z,37.7
2017-06-12T06:33:32.933Z,37.7
2017-06-12T06:34:33.303Z,38
2017-06-12T06:35:33.675Z,37.8
2017-06-12T06:36:34.047Z,38.2
2017-06-12T06:37:34.761Z,37.9
2017-06-12T12:43:39.166Z,30.1
2017-06-12T12:44:39.927Z,25.7
2017-06-12T12:45:40.684Z,25
2017-06-12T12:46:41.422Z,24.3
2017-06-12T12:47:42.516Z,24.8
2017-06-12T12:48:43.611Z,24.8
2017-06-12T12:49:44.351Z,25
2017-06-12T12:50:45.448Z,25.4
2017-06-12T12:51:04.688Z,25.2
2017-06-12T12:51:13.746Z,24.7
2017-06-12T12:52:14.509Z,25.4
2017-06-12T12:53:15.604Z,25.2
2017-06-12T12:54:16.346Z,25.2
2017-06-12T12:55:16.756Z,24.9
2017-06-12T12:56:17.852Z,26.5
2017-06-12T12:57:18.947Z,26.2
2017-06-12T12:58:20.146Z,26.2
2017-06-12T12:59:21.288Z,25.3
2017-06-12T13:00:22.386Z,24.8
2017-06-12T13:01:22.796Z,24.8
2017-06-12T13:02:23.556Z,24.6
2017-06-12T13:03:24.317Z,24.5
2017-06-12T13:04:24.728Z,24.6
2017-06-12T13:05:25.826Z,24.6
2017-06-12T13:06:26.325Z,24.6
2017-06-12T13:07:27.459Z,24.6
2017-06-12T13:08:28.558Z,24.7
2017-06-12T13:09:29.302Z,24.5
2017-06-12T13:10:30.402Z,24.3
2017-06-12T13:11:31.499Z,24.2
2017-06-12T13:12:32.616Z,24.3
2017-06-12T13:13:33.364Z,24
2017-06-12T13:14:34.462Z,23.9
2017-06-12T13:15:35.564Z,24.2
2017-06-12T13:16:36.347Z,23.8
2017-06-12T13:17:37.128Z,23.8
2017-06-12T13:18:38.456Z,23.4
2017-06-12T13:19:39.662Z,22.8
2017-06-12T13:20:40.762Z,23.3
2017-06-12T13:21:41.172Z,23.3
2017-06-12T13:22:41.940Z,23.3
2017-06-12T13:23:43.040Z,23.2
2017-06-12T13:24:43.449Z,23.3
2017-06-12T13:25:44.548Z,23.1
2017-06-12T13:26:45.648Z,23.4
2017-06-12T13:27:46.398Z,23
2017-06-12T13:28:47.496Z,23.3
2017-06-12T13:29:47.907Z,23.3
2017-06-12T13:30:48.672Z,22.9
2017-06-12T13:31:49.772Z,22.7
2017-06-12T13:32:50.537Z,23
2017-06-12T13:33:51.304Z,23.1
2017-06-12T13:34:52.069Z,23.1
2017-06-12T13:35:52.480Z,23
2017-06-12T13:36:53.633Z,23.3
2017-06-12T13:37:54.377Z,23.1
2017-06-12T13:38:55.143Z,23.2
2017-06-12T13:39:56.244Z,23.5
2017-06-12T13:40:56.990Z,23.3
2017-06-12T13:41:57.754Z,23.4
2017-06-12T13:42:58.517Z,23.2
2017-06-12T13:43:59.283Z,23.2
2017-06-12T13:45:00.029Z,22.5
2017-06-12T13:46:00.794Z,23.1
2017-06-12T13:47:01.894Z,22.6
2017-06-12T13:48:02.658Z,22.9
2017-06-12T13:49:03.759Z,23
2017-06-12T13:50:04.171Z,23
2017-06-12T13:51:04.916Z,23
2017-06-12T13:52:06.016Z,23.2
2017-06-12T13:53:06.780Z,22.9
2017-06-12T13:54:07.546Z,23
2017-06-12T13:55:08.648Z,22.9
2017-06-12T13:56:09.394Z,22.8
2017-06-12T13:57:09.809Z,22.4
2017-06-12T13:58:10.908Z,22.6
2017-06-12T13:59:12.009Z,22.5
2017-06-12T14:00:12.753Z,22.5
2017-06-12T14:01:13.853Z,22.7
2017-06-12T14:02:14.617Z,22.4
2017-06-12T14:03:15.717Z,22.4
2017-06-12T14:04:16.482Z,22.3
2017-06-12T14:05:17.252Z,22.1
2017-06-12T14:06:17.664Z,22.1
2017-06-12T14:07:18.407Z,22.5
2017-06-12T14:08:19.597Z,22.3
2017-06-12T14:09:20.378Z,22.1
2017-06-12T14:10:21.478Z,22.6
2017-06-12T14:11:22.579Z,22.4
2017-06-12T14:12:23.322Z,22.7
2017-06-12T14:13:24.419Z,22
2017-06-12T14:14:25.164Z,22.1
2017-06-12T14:15:25.908Z,21.8
2017-06-12T14:16:26.320Z,21.9
2017-06-12T14:17:27.420Z,21.9
2017-06-12T14:18:28.517Z,21.7
2017-06-12T14:19:29.287Z,22.1
2017-06-12T14:20:30.052Z,22
2017-06-12T14:21:31.152Z,22.6
2017-06-12T14:22:31.919Z,22.7
2017-06-12T14:23:33.017Z,22.6
2017-06-12T14:24:34.117Z,22.3
2017-06-12T14:25:34.886Z,22.4
2017-06-12T14:26:35.297Z,22.5
2017-06-12T14:27:36.042Z,22.4
2017-06-12T14:28:37.141Z,22.5
2017-06-12T14:29:38.240Z,22.6
2017-06-12T14:30:38.985Z,22.5
2017-06-12T14:31:39.748Z,22.4
2017-06-12T14:32:40.513Z,22.6
2017-06-12T14:33:41.613Z,22.5
2017-06-12T14:34:42.708Z,22.4
2017-06-12T14:35:43.808Z,22.4
2017-06-12T14:36:44.908Z,22.5
2017-06-12T14:37:45.323Z,22.5
2017-06-12T14:38:46.417Z,22.3
2017-06-12T14:39:47.161Z,22.5
2017-06-12T14:40:48.258Z,22.2
2017-06-12T14:41:49.357Z,22.5
2017-06-12T14:42:50.103Z,22.5
2017-06-12T14:43:51.203Z,22.6
2017-06-12T14:44:52.303Z,22.4
2017-06-12T14:45:53.403Z,22.4
2017-06-12T14:46:54.502Z,22.3
2017-06-12T14:47:55.601Z,22.5
2017-06-12T14:48:56.347Z,22.6
2017-06-12T14:49:57.116Z,22.4
2017-06-12T14:50:58.216Z,22.5
2017-06-12T14:51:58.960Z,22.6
2017-06-12T14:52:59.371Z,22.4
2017-06-12T14:53:59.778Z,22.3
2017-06-12T14:55:00.522Z,22.4
2017-06-12T14:56:01.628Z,22.3
2017-06-12T14:57:02.729Z,22.5
2017-06-12T14:58:03.830Z,22.5
2017-06-12T14:59:04.576Z,22.5
2017-06-12T15:00:04.989Z,22.4
2017-06-12T15:01:05.734Z,22.6
2017-06-12T15:02:06.148Z,22.3
2017-06-12T15:03:07.246Z,22.3
2017-06-12T15:04:07.654Z,22.5
2017-06-12T15:05:08.752Z,22.5
2017-06-12T15:06:09.850Z,22.4
2017-06-12T15:07:10.594Z,22.2
2017-06-12T15:08:11.694Z,22.5
2017-06-12T15:09:12.460Z,22.5
2017-06-12T15:10:13.201Z,22.6
2017-06-12T15:11:13.967Z,22.5
2017-06-12T15:12:14.737Z,22.3
2017-06-12T15:13:15.498Z,22.6
2017-06-12T15:14:16.241Z,22
2017-06-12T15:15:17.007Z,22.4
2017-06-12T15:16:17.419Z,22.5
2017-06-12T15:17:18.163Z,22.5
2017-06-12T15:18:18.933Z,22.5
2017-06-12T15:19:20.032Z,22.5
2017-06-12T15:20:20.444Z,22.3
2017-06-12T15:21:21.541Z,22.3
2017-06-12T15:22:22.285Z,22
2017-06-12T15:23:23.030Z,22.1
2017-06-12T15:24:24.128Z,22.6
2017-06-12T15:25:24.874Z,21.9
2017-06-12T15:26:25.972Z,21.9
2017-06-12T15:27:26.719Z,22.8
2017-06-12T15:28:27.818Z,22.4
2017-06-12T15:29:28.585Z,22.4
2017-06-12T15:30:29.328Z,22.7
2017-06-12T15:31:30.094Z,22.4
2017-06-12T15:32:31.195Z,22.4
2017-06-12T15:33:32.289Z,22.4
2017-06-12T15:34:33.032Z,22.4
2017-06-12T15:35:34.130Z,22.4
2017-06-12T15:36:34.874Z,22.5
2017-06-12T15:37:35.971Z,22.5
2017-06-12T15:38:37.072Z,22.5
2017-06-12T15:39:38.170Z,22.5
2017-06-12T15:40:39.269Z,22.5
2017-06-12T15:41:40.367Z,22.4
2017-06-12T15:42:41.134Z,22.5
2017-06-12T15:43:42.234Z,22.5
2017-06-12T15:44:43.333Z,22.6
2017-06-12T15:45:44.080Z,22.5
2017-06-12T15:46:45.180Z,22.5
2017-06-12T15:47:46.281Z,22
2017-06-12T15:48:47.050Z,22.1
2017-06-12T15:49:47.795Z,22.4
2017-06-12T15:50:48.893Z,22.3
2017-06-12T15:51:49.991Z,22.6
2017-06-12T15:52:51.090Z,22.5
2017-06-12T15:53:52.189Z,22.5
2017-06-12T15:54:53.289Z,22.5
2017-06-12T15:55:54.388Z,22.4
2017-06-12T15:56:55.488Z,22.4
2017-06-12T15:57:56.588Z,22.5
2017-06-12T15:58:57.688Z,22.6
2017-06-12T15:59:58.785Z,22.4
2017-06-12T16:00:59.528Z,22.6
2017-06-12T16:02:00.625Z,22.5
2017-06-12T16:03:01.388Z,22.5
2017-06-12T16:04:02.485Z,22.4
2017-06-12T16:05:03.253Z,22.5
2017-06-12T16:06:04.016Z,22.5
2017-06-12T16:07:05.117Z,22.4
2017-06-12T16:08:06.213Z,21.9
2017-06-12T16:09:06.626Z,22.1
2017-06-12T16:10:07.725Z,22.4
2017-06-12T16:11:08.825Z,22.5
2017-06-12T16:12:09.924Z,22.5
2017-06-12T16:13:10.666Z,22.6
2017-06-12T16:14:11.428Z,22.4
2017-06-12T16:15:12.186Z,22.1
2017-06-12T16:16:13.284Z,22
2017-06-12T16:17:14.382Z,22
2017-06-12T16:18:14.797Z,22
2017-06-12T16:19:15.543Z,22
2017-06-12T16:20:16.641Z,22.2
2017-06-12T16:21:17.407Z,22.3
2017-06-12T16:22:18.505Z,22
2017-06-12T16:23:19.269Z,22.1
2017-06-12T16:24:20.367Z,22.1
2017-06-12T16:25:21.465Z,22.2
2017-06-12T16:26:22.232Z,22
2017-06-12T16:27:23.330Z,22
2017-06-12T16:28:24.095Z,22.1
2017-06-12T16:29:24.862Z,22.3
2017-06-12T16:30:25.962Z,22.1
2017-06-12T16:31:26.705Z,22.1
2017-06-12T16:32:27.450Z,22.2
2017-06-12T16:33:28.216Z,22
2017-06-12T16:34:28.959Z,22.3
2017-06-12T16:35:29.705Z,22.2
2017-06-12T16:36:30.802Z,22.2
2017-06-12T16:37:31.546Z,22.1
2017-06-12T16:38:32.314Z,22.1
2017-06-12T16:39:33.413Z,22.1
2017-06-12T16:40:34.180Z,22
2017-06-12T16:41:34.923Z,21.8
2017-06-12T16:42:36.023Z,21.8
2017-06-12T16:43:37.122Z,21.9
2017-06-12T16:44:37.890Z,21.9
2017-06-12T16:45:38.987Z,21.9
2017-06-12T16:46:39.732Z,22
2017-06-12T16:47:40.829Z,21.9
2017-06-12T16:48:41.930Z,22
2017-06-12T16:49:42.672Z,21.8
2017-06-12T16:50:43.086Z,22
2017-06-12T16:51:44.185Z,21.8
2017-06-12T16:52:45.284Z,22
2017-06-12T16:53:46.050Z,21.8
2017-06-12T16:54:46.817Z,21.9
2017-06-12T16:55:47.231Z,22.1
2017-06-12T16:56:48.329Z,21.8
2017-06-12T16:57:49.425Z,21.8
2017-06-12T16:58:49.837Z,21.8
2017-06-12T16:59:50.936Z,21.2
2017-06-12T17:00:52.034Z,21.8
2017-06-12T17:01:52.802Z,21.9
2017-06-12T17:02:53.900Z,21.8
2017-06-12T17:03:54.667Z,21.8
2017-06-12T17:04:55.411Z,21.6
2017-06-12T17:05:56.174Z,21.8
2017-06-12T17:06:57.272Z,21.9
2017-06-12T17:07:58.371Z,21.8
2017-06-12T17:08:59.134Z,21.8
2017-06-12T17:10:00.232Z,21.4
2017-06-12T17:11:01.335Z,21.5
2017-06-12T17:12:02.081Z,21.8
2017-06-12T17:13:02.823Z,21.9
2017-06-12T17:14:03.922Z,22
2017-06-12T17:15:04.665Z,21.5
2017-06-12T17:16:05.428Z,21.8
2017-06-12T17:17:06.172Z,21.8
2017-06-12T17:18:06.938Z,21.7
2017-06-12T17:19:07.680Z,21.7
2017-06-12T17:20:08.780Z,21.8
2017-06-12T17:21:09.879Z,21.8
2017-06-12T17:22:10.977Z,21.5
2017-06-12T17:23:12.076Z,21.5
2017-06-12T17:24:13.175Z,21.6
2017-06-12T17:25:14.275Z,21.8
2017-06-12T17:26:15.373Z,21.8
2017-06-12T17:27:16.473Z,21.7
2017-06-12T17:28:17.220Z,21.4
2017-06-12T17:29:18.318Z,21.8
2017-06-12T17:30:18.728Z,22.1
2017-06-12T17:31:19.827Z,21.6
2017-06-12T17:32:20.927Z,21.5
2017-06-12T17:33:21.669Z,21.6
2017-06-12T17:34:22.414Z,21.8
2017-06-12T17:35:23.182Z,22
2017-06-12T17:36:24.281Z,22.1
2017-06-12T17:37:25.381Z,22.1
2017-06-12T17:38:26.124Z,21.8
2017-06-12T17:39:27.225Z,21.8
2017-06-12T17:40:28.319Z,22
2017-06-12T17:41:29.089Z,21.8
2017-06-12T17:42:30.187Z,21.9
2017-06-12T17:43:31.283Z,21.7
2017-06-12T17:44:32.382Z,21.8
2017-06-12T17:45:33.480Z,21.7
2017-06-12T17:46:34.578Z,21.9
2017-06-12T17:47:35.678Z,21.9
2017-06-12T17:48:36.776Z,21.8
2017-06-12T17:49:37.521Z,21.8
2017-06-12T17:50:38.286Z,22.1
2017-06-12T17:51:39.384Z,21.8
2017-06-12T17:52:40.482Z,21.8
2017-06-12T17:53:41.225Z,21.6
2017-06-12T17:54:41.991Z,21.5
2017-06-12T17:55:43.090Z,21.9
2017-06-12T17:56:44.188Z,21.6
2017-06-12T17:57:44.596Z,21.2
2017-06-12T17:58:45.362Z,21.8
2017-06-12T17:59:46.460Z,21.8
2017-06-12T18:00:46.870Z,21.9
2017-06-12T18:01:47.616Z,21.7
2017-06-12T18:02:48.361Z,21.8
2017-06-12T18:03:49.129Z,21.8
2017-06-12T18:04:49.893Z,21.8
2017-06-12T18:05:50.307Z,21.9
2017-06-12T18:06:51.049Z,21.8
2017-06-12T18:07:51.792Z,21.9
2017-06-12T18:08:52.202Z,21.8
2017-06-12T18:09:53.301Z,21.8
2017-06-12T18:10:54.397Z,21.9
2017-06-12T18:11:55.141Z,21.9
2017-06-12T18:12:56.239Z,22
2017-06-12T18:13:57.338Z,22.2
2017-06-12T18:14:58.105Z,22
2017-06-12T18:15:59.201Z,22.2
2017-06-12T18:17:00.298Z,22.2
2017-06-12T18:18:01.397Z,22.1
2017-06-12T18:19:02.162Z,22.2
2017-06-12T18:20:03.262Z,22.3
2017-06-12T18:21:04.359Z,22.1
2017-06-12T18:22:05.101Z,22.2
2017-06-12T18:23:05.846Z,22.1
2017-06-12T18:24:06.947Z,22.2
2017-06-12T18:25:08.041Z,22
2017-06-12T18:26:09.141Z,22
2017-06-12T18:27:10.239Z,22.1
2017-06-12T18:28:10.983Z,22.2
2017-06-12T18:29:11.393Z,22.1
2017-06-12T18:30:11.803Z,22.1
2017-06-12T18:31:12.901Z,22.2
2017-06-12T18:32:13.645Z,22.2
2017-06-12T18:33:14.744Z,22.3
2017-06-12T18:34:15.151Z,22.3
2017-06-12T18:35:16.248Z,22.1
2017-06-12T18:36:17.344Z,22.2
2017-06-12T18:37:18.442Z,22.3
2017-06-12T18:38:19.209Z,22.3
2017-06-12T18:39:19.619Z,22.3
2017-06-12T18:40:20.719Z,22.2
2017-06-12T18:41:21.486Z,22.1
2017-06-12T18:42:22.588Z,22.2
2017-06-12T18:43:22.995Z,22.2
2017-06-12T18:44:24.094Z,22.1
2017-06-12T18:45:25.193Z,22.1
2017-06-12T18:46:25.603Z,22.3
2017-06-12T18:47:26.702Z,22.2
2017-06-12T18:48:27.110Z,22.2
2017-06-12T18:49:28.208Z,22.3
2017-06-12T18:50:29.308Z,22
2017-06-12T18:51:30.406Z,22
2017-06-12T18:52:31.506Z,22
2017-06-12T18:53:32.252Z,22
2017-06-12T18:54:32.661Z,22
2017-06-12T18:55:33.757Z,22
2017-06-12T18:56:34.526Z,22.2
2017-06-12T18:57:35.629Z,22.1
2017-06-12T18:58:36.391Z,22.1
2017-06-12T18:59:37.155Z,22.1
2017-06-12T19:00:38.254Z,22.4
2017-06-12T19:01:39.018Z,22.6
2017-06-12T19:02:40.116Z,22.6
2017-06-12T19:03:41.211Z,22.7
2017-06-12T19:04:42.310Z,22.3
2017-06-12T19:05:43.077Z,22.3
2017-06-12T19:06:44.175Z,22.3
2017-06-12T19:07:44.942Z,22.4
2017-06-12T19:08:45.683Z,22.5
2017-06-12T19:09:46.782Z,22.6
2017-06-12T19:10:47.882Z,22.4
2017-06-12T19:11:48.979Z,22.5
2017-06-12T19:12:49.724Z,22.6
2017-06-12T19:13:50.467Z,22.5
2017-06-12T19:14:51.567Z,22.5
2017-06-12T19:15:52.663Z,22.4
2017-06-12T19:16:53.407Z,22.5
2017-06-12T19:17:54.173Z,22.5
2017-06-12T19:18:55.272Z,22.6
2017-06-12T19:19:56.037Z,22.5
2017-06-12T19:20:57.136Z,22.5
2017-06-12T19:21:57.881Z,22.7
2017-06-12T19:22:58.980Z,22.8
2017-06-12T19:23:59.732Z,22.9
2017-06-12T19:25:00.475Z,22.2
2017-06-12T19:26:01.573Z,22.5
2017-06-12T19:27:02.671Z,22.7
2017-06-12T19:28:03.770Z,22.8
2017-06-12T19:29:04.538Z,22.2
2017-06-12T19:30:05.282Z,22.7
2017-06-12T19:31:06.377Z,22.5
2017-06-12T19:32:07.143Z,22.8
2017-06-12T19:33:07.554Z,22.8
2017-06-12T19:34:08.664Z,22.4
2017-06-12T19:35:09.761Z,22.4
2017-06-12T19:36:10.172Z,22.9
2017-06-12T19:37:10.936Z,22.7
2017-06-12T19:38:11.678Z,22.3
2017-06-12T19:39:12.778Z,22.4
2017-06-12T19:40:13.543Z,22.7
2017-06-12T19:41:14.643Z,22.2
2017-06-12T19:42:15.386Z,22.7
2017-06-12T19:43:16.486Z,22.6
2017-06-12T19:44:17.231Z,22.4
2017-06-12T19:45:17.975Z,22.4
2017-06-12T19:46:19.074Z,22.4
2017-06-12T19:47:19.843Z,22.8
2017-06-12T19:48:20.940Z,22.6
2017-06-12T19:49:21.684Z,22.7
2017-06-12T19:50:22.780Z,22.9
2017-06-12T19:51:23.878Z,22.7
2017-06-12T19:52:24.977Z,22.9
2017-06-12T19:53:26.076Z,22.8
2017-06-12T19:54:27.175Z,22.9
2017-06-12T19:55:27.585Z,22.8
2017-06-12T19:56:28.684Z,22.4
2017-06-12T19:57:29.426Z,22.9
2017-06-12T19:58:30.191Z,22.9
2017-06-12T19:59:31.290Z,22.5
2017-06-12T20:00:31.699Z,22.7
2017-06-12T20:01:32.460Z,23.1
2017-06-12T20:02:33.206Z,22.9
2017-06-12T20:03:34.304Z,22.6
2017-06-12T20:04:35.401Z,22.8
2017-06-12T20:05:36.500Z,22.7
2017-06-12T20:06:37.596Z,22.6
2017-06-12T20:07:38.365Z,22.6
2017-06-12T20:08:39.129Z,22.6
2017-06-12T20:09:40.229Z,22.6
2017-06-12T20:10:40.974Z,22.8
2017-06-12T20:11:41.716Z,22.7
2017-06-12T20:12:42.812Z,22.8
2017-06-12T20:13:43.910Z,22.9
2017-06-12T20:14:44.674Z,22.9
2017-06-12T20:15:45.087Z,22.9
2017-06-12T20:16:46.183Z,22.8
2017-06-12T20:17:47.282Z,22.6
2017-06-12T20:18:48.382Z,22.5
2017-06-12T20:19:49.125Z,22.9
2017-06-12T20:20:50.224Z,22.6
2017-06-12T20:21:50.968Z,22.5
2017-06-12T20:22:51.390Z,22.6
2017-06-12T20:23:52.483Z,22.6
2017-06-12T20:24:53.582Z,22.5
2017-06-12T20:25:54.679Z,22.8
2017-06-12T20:26:55.448Z,22.7
2017-06-12T20:27:56.544Z,22.5
2017-06-12T20:28:57.643Z,22.8
2017-06-12T20:29:58.410Z,22.7
2017-06-12T20:30:58.815Z,22.6
2017-06-12T20:31:59.579Z,22.5
2017-06-12T20:33:00.321Z,22.6
2017-06-12T20:34:01.420Z,22.6
2017-06-12T20:35:02.162Z,22.6
2017-06-12T20:36:03.261Z,22.7
2017-06-12T20:37:04.028Z,22.7
2017-06-12T20:38:04.772Z,22.4
2017-06-12T20:39:05.517Z,22.6
2017-06-12T20:40:06.259Z,22.8
2017-06-12T20:41:07.356Z,22.6
2017-06-12T20:42:08.452Z,22.5
2017-06-12T20:43:09.550Z,22.4
2017-06-12T20:44:10.646Z,22.8
2017-06-12T20:45:11.744Z,22.6
2017-06-12T20:46:12.843Z,22.8
2017-06-12T20:47:13.939Z,22.9
2017-06-12T20:48:15.036Z,23
2017-06-12T20:49:16.133Z,23
2017-06-12T20:50:17.231Z,22.9
2017-06-12T20:51:17.996Z,22.7
2017-06-12T20:52:18.761Z,23.1
2017-06-12T20:53:19.860Z,23
2017-06-12T20:54:20.603Z,23
2017-06-12T20:55:21.371Z,23.2
2017-06-12T20:56:22.136Z,22.9
2017-06-12T20:57:23.234Z,22.8
2017-06-12T20:58:23.647Z,23.1
2017-06-12T20:59:24.416Z,23
2017-06-12T21:00:24.832Z,22.9
2017-06-12T21:01:25.920Z,23
2017-06-12T21:02:27.021Z,23
2017-06-12T21:03:28.118Z,23.1
2017-06-12T21:04:29.216Z,23.3
2017-06-12T21:05:29.959Z,23.1
2017-06-12T21:06:30.704Z,22.8
2017-06-12T21:07:31.446Z,23
2017-06-12T21:08:32.192Z,23.2
2017-06-12T21:09:33.291Z,22.9
2017-06-12T21:10:34.056Z,23
2017-06-12T21:11:34.823Z,23
2017-06-12T21:12:35.924Z,23.2
2017-06-12T21:13:37.018Z,23.1
2017-06-12T21:14:37.782Z,23
2017-06-12T21:15:38.549Z,23.1
2017-06-12T21:16:39.646Z,23.3
2017-06-12T21:17:40.414Z,23.2
2017-06-12T21:18:41.510Z,23.1
2017-06-12T21:19:42.631Z,23.1
2017-06-12T21:20:43.729Z,23
2017-06-12T21:21:44.496Z,22.9
2017-06-12T21:22:45.261Z,23.1
2017-06-12T21:23:46.359Z,22.9
2017-06-12T21:24:47.102Z,23
2017-06-12T21:25:47.866Z,23
2017-06-12T21:26:48.633Z,23
2017-06-12T21:27:49.375Z,23.2
2017-06-12T21:28:50.139Z,23.1
2017-06-12T21:29:50.881Z,22.9
2017-06-12T21:30:51.980Z,23.3
2017-06-12T21:31:52.722Z,23.4
2017-06-12T21:32:53.469Z,23.2
2017-06-12T21:33:54.235Z,23.3
2017-06-12T21:34:55.333Z,23.3
2017-06-12T21:35:56.430Z,23.3
2017-06-12T21:36:57.528Z,23.3
2017-06-12T21:37:58.626Z,23.3
2017-06-12T21:38:59.723Z,23
2017-06-12T21:40:00.491Z,23.4
2017-06-12T21:41:01.587Z,23.2
2017-06-12T21:42:02.355Z,23
2017-06-12T21:43:03.452Z,23.3
2017-06-12T21:44:04.550Z,23.3
2017-06-12T21:45:05.646Z,23.3
2017-06-12T21:46:06.743Z,23.3
2017-06-12T21:47:07.151Z,23.2
2017-06-12T21:48:08.248Z,23.4
2017-06-12T21:49:09.344Z,23.4
2017-06-12T21:50:09.755Z,23.2
2017-06-12T21:51:10.519Z,23.2
2017-06-12T21:52:11.626Z,23.2
2017-06-12T21:53:12.381Z,23.2
2017-06-12T21:54:13.124Z,23.2
2017-06-12T21:55:13.888Z,23.2
2017-06-12T21:56:14.293Z,23.1
2017-06-12T21:57:15.043Z,23
2017-06-12T21:58:15.785Z,23.2
2017-06-12T21:59:16.883Z,23.3
2017-06-12T22:00:17.980Z,23.4
2017-06-12T22:01:19.079Z,23.4
2017-06-12T22:02:19.493Z,23.4
2017-06-12T22:03:20.257Z,23.6
2017-06-12T22:04:21.354Z,23.4
2017-06-12T22:05:22.463Z,23.2
2017-06-12T22:06:23.205Z,23.4
2017-06-12T22:07:23.972Z,23.2
2017-06-12T22:08:25.070Z,23.2
2017-06-12T22:09:26.169Z,23.3
2017-06-12T22:10:27.264Z,23.4
2017-06-12T22:11:28.362Z,23.2
2017-06-12T22:12:29.105Z,23.3
2017-06-12T22:13:29.849Z,23.4
2017-06-12T22:14:30.946Z,22.9
2017-06-12T22:15:31.709Z,23.3
2017-06-12T22:16:32.806Z,23.2
2017-06-12T22:17:33.906Z,23.3
2017-06-12T22:18:34.669Z,23.3
2017-06-12T22:19:35.412Z,23.3
2017-06-12T22:20:36.509Z,23
2017-06-12T22:21:37.252Z,23
2017-06-12T22:22:38.349Z,23.4
2017-06-12T22:23:39.446Z,23.5
2017-06-12T22:24:40.544Z,22.9
2017-06-12T22:25:41.307Z,23.3
2017-06-12T22:26:42.072Z,23.4
2017-06-12T22:27:43.168Z,23.3
2017-06-12T22:28:44.267Z,23.2
2017-06-12T22:29:45.363Z,23.4
2017-06-12T22:30:46.460Z,23.3
2017-06-12T22:31:47.556Z,23.1
2017-06-12T22:32:48.654Z,22.9
2017-06-12T22:33:49.751Z,23
2017-06-12T22:34:50.850Z,23.2
2017-06-12T22:35:51.594Z,23
2017-06-12T22:36:52.335Z,22.9
2017-06-12T22:37:53.079Z,23.4
2017-06-12T22:38:54.177Z,23.4
2017-06-12T22:39:54.920Z,23.4
2017-06-12T22:40:56.018Z,23.2
2017-06-12T22:41:56.426Z,23.3
2017-06-12T22:42:57.176Z,23.2
2017-06-12T22:43:58.273Z,23.4
2017-06-12T22:44:59.372Z,23.2
2017-06-12T22:46:00.470Z,23.4
2017-06-12T22:47:01.235Z,23.3
2017-06-12T22:48:02.336Z,23.4
2017-06-12T22:49:03.432Z,23.4
2017-06-12T22:50:04.194Z,23.2
2017-06-12T22:51:04.959Z,23.2
2017-06-12T22:52:05.723Z,23.3
2017-06-12T22:53:06.821Z,23.4
2017-06-12T22:54:07.919Z,23.3
2017-06-12T22:55:09.016Z,23.4
2017-06-12T22:56:10.113Z,23.3
2017-06-12T22:57:11.213Z,23.3
2017-06-12T22:58:11.979Z,23.3
2017-06-12T22:59:12.744Z,23.2
2017-06-12T23:00:13.841Z,23.4
2017-06-12T23:01:14.939Z,23.3
2017-06-12T23:02:15.702Z,23.3
2017-06-12T23:03:16.797Z,23.3
2017-06-12T23:04:17.209Z,23.4
2017-06-12T23:05:18.304Z,23.4
2017-06-12T23:06:19.050Z,23.2
2017-06-12T23:07:19.811Z,23.3
2017-06-12T23:08:20.908Z,23.4
2017-06-12T23:09:22.008Z,23.4
2017-06-12T23:10:23.103Z,23.3
2017-06-12T23:11:24.202Z,23
2017-06-12T23:12:25.300Z,23.4
2017-06-12T23:13:26.398Z,23.4
2017-06-12T23:14:27.497Z,23.3
2017-06-12T23:15:28.239Z,23.4
2017-06-12T23:16:29.002Z,23.3
2017-06-12T23:17:29.743Z,22.8
2017-06-12T23:18:30.152Z,23.3
2017-06-12T23:19:31.250Z,23.3
2017-06-12T23:20:31.992Z,22.9
2017-06-12T23:21:32.759Z,22.8
2017-06-12T23:22:33.167Z,23.4
2017-06-12T23:23:33.924Z,22.9
2017-06-12T23:24:35.021Z,23.3
2017-06-12T23:25:36.119Z,23.2
2017-06-12T23:26:37.218Z,23.3
2017-06-12T23:27:38.316Z,23.2
2017-06-12T23:28:39.078Z,23.4
2017-06-12T23:29:39.490Z,23
2017-06-12T23:30:40.585Z,23.3
2017-06-12T23:31:41.685Z,23.4
2017-06-12T23:32:42.781Z,23
2017-06-12T23:33:43.878Z,23.3
2017-06-12T23:34:44.975Z,23.3
2017-06-12T23:35:45.718Z,23.2
2017-06-12T23:36:46.462Z,23.4
2017-06-12T23:37:47.228Z,23.3
2017-06-12T23:38:47.973Z,23.4
2017-06-12T23:39:49.070Z,23.4
2017-06-12T23:40:49.812Z,23.1
2017-06-12T23:41:50.911Z,23.4
2017-06-12T23:42:52.009Z,23.4
2017-06-12T23:43:52.419Z,23.3
2017-06-12T23:44:53.182Z,23.4
2017-06-12T23:45:53.924Z,23.4
2017-06-12T23:46:55.021Z,23.4
2017-06-12T23:47:55.783Z,23.2
2017-06-12T23:48:56.877Z,23.1
2017-06-12T23:49:57.974Z,23.3
2017-06-12T23:50:59.071Z,23.4
2017-06-12T23:51:59.837Z,23.3
2017-06-12T23:53:00.600Z,23.4
2017-06-12T23:54:01.365Z,23.2
2017-06-12T23:55:02.463Z,23.2
2017-06-12T23:56:03.561Z,23.4
2017-06-12T23:57:04.659Z,23.2
2017-06-12T23:58:05.754Z,23.2
2017-06-12T23:59:06.519Z,23.2
